Etusivu
METAR-TAF:

METAR-TAF

Lentoasemat :

Cap Skirring, Senegal

Leveyspiiri: 12-24N, Pituuspiiri: 016-45W, korkeus merenpinnasta: 16 m

Tämänhetkinen sää

Tämä raportti tehtiin 42 minuuttia sitten, kello 16.00 UTC
Tuuli 6 kn lännestä/luoteesta
Lämpötila 33°C
Kosteus 71%
Ilmanpaine 1008 hPa
Näkyvyys 10 km tai enemmän
Muutamia pilviä 1500 ft:n korkeudessa

METAR: GOGS 261600Z 30006KT 9999 FEW015 33/27 Q1008

Aika: 16:42 (16:42 UTC)

Sääennuste

Tämä raportti tehtiin 5 tuntia ja 12 minuuttia sitten, kello 11.30 UTC
Ennuste voimassa 26. päivästä klo 12 UTC - 27. päivään klo 12 UTC
Tuuli 7 kn lännestä/luoteesta
Näkyvyys 10 km tai enemmän
Hajanaisia pilviä 1300 ft:n korkeudessa

TAF: GOGS 261130Z 2612/2712 30007KT 9999 SCT013

Säähavainnot ja -ennusteet yli 4000 lentoasemalta (METAR- ja TAF-raportit).

Käytössä olevat sääasemat on merkitty karttaan keltaisilla ja punaisilla pisteillä.

Aseta hiiri pisteen päälle nähdäksesi sääaseman nimen.

Klikkaa sitten nähdäksesi säähavainnot ja -ennusteet.

Kartan vaihtaminen: klikkaa mustalla rastilla varustettuja vihreitä pisteitä, niin voit zoomata sisään; viivalla varustettua vihreää pistettä, niin voit zoomata ulos tai vihreitä nuolia, niin pääset viereisille kartoille.


METAR-TAF: